Latest Weather Observations for Ferny Creek

IDV60801

Issued at 4:32 pm EDT Sunday 14 February 2016 (issued every 30 minutes, with the page automatically refreshed every 10 minutes)

About weather observations | Map of weather stations | Latest weather observations for VIC | Other Formats
Station Details ID: 086266 Name: FERNY CREEK Lat: -37.87 Lon: 145.35 Height: 512.9 m
Data from the previous 72 hours. | See also: Recent months at Ferny Creek
Date/Time
EDT
Temp
°C
App
Temp
°C
Dew
Point
Rel
Hum
%
Delta-T
°C
Wind Press
QNH
hPa
Press
MSL
hPa
Rain
since 9 am
mm
Dir
 
Spd
km/h
Gust
km/h
Spd
kts
Gust
kts
14/04:30pm 19.5 18.1 8.8 50 5.7 WSW 6 17 3 9 1012.3 1010.7 0.0
14/04:00pm 20.3 18.2 8.3 46 6.4 WSW 9 26 5 14 1012.3 1010.7 0.0
14/03:30pm 19.6 18.1 8.3 48 6.0 SW 6 20 3 11 1012.5 1010.9 0.0
14/03:00pm 18.6 17.0 8.0 50 5.6 WSW 6 13 3 7 1012.9 1011.2 0.0
14/02:30pm 19.5 18.8 11.3 59 4.6 W 6 11 3 6 1013.0 1011.4 0.0
14/02:00pm 18.6 17.7 9.4 55 5.0 W 4 7 2 4 1012.9 1011.2 0.0
14/01:30pm 18.4 17.0 8.9 54 5.1 W 6 11 3 6 1013.0 1011.4 0.0
14/01:00pm 18.0 16.5 8.3 53 5.1 WSW 6 9 3 5 1013.0 1011.4 0.0
14/12:30pm 19.3 18.0 9.2 52 5.5 SW 6 19 3 10 1013.0 1011.4 0.0
14/12:00pm 17.6 16.6 10.2 62 4.0 NW 6 19 3 10 1013.0 1011.4 0.0
14/11:30am 17.0 16.6 11.1 68 3.3 WSW 4 11 2 6 1013.0 1011.4 0.0
14/11:00am 16.4 15.9 10.7 69 3.1 NW 4 9 2 5 1013.0 1011.4 0.0
14/10:30am 15.9 15.6 11.5 75 2.4 WSW 4 9 2 5 1013.0 1011.4 0.0
14/10:00am 14.7 13.9 10.9 78 2.1 NW 6 11 3 6 1013.0 1011.4 0.0
14/09:30am 14.2 13.7 10.6 79 1.9 W 4 11 2 6 1013.0 1011.4 0.0
14/09:00am 14.0 13.6 11.2 83 1.5 NW 4 9 2 5 1012.7 1011.0 6.6
14/08:30am 13.4 13.3 12.0 91 0.8 WNW 4 6 2 3 1012.3 1010.7 6.6
14/08:00am 12.7 12.7 11.3 91 0.8 W 2 6 1 3 1012.0 1010.4 6.6
14/07:30am 12.0 11.9 10.9 93 0.6 WNW 2 6 1 3 1011.5 1009.9 6.6
14/07:00am 11.1 11.2 10.0 93 0.6 CALM 0 2 0 1 1011.2 1009.5 6.6
14/06:30am 10.8 10.7 9.6 92 0.6 CALM 0 4 0 2 1010.9 1009.2 6.6
14/06:00am 10.9 10.8 9.5 91 0.7 CALM 0 2 0 1 1010.5 1008.9 6.6
14/05:30am 11.2 10.8 9.6 90 0.8 WSW 2 6 1 3 1010.3 1008.7 6.6
14/05:00am 12.1 11.8 10.2 88 1.0 NW 2 6 1 3 1010.2 1008.6 6.6
14/04:30am 13.0 13.5 11.6 91 0.8 CALM 0 4 0 2 1010.1 1008.5 6.6
14/04:00am 13.3 13.5 12.0 92 0.7 WNW 2 6 1 3 1010.1 1008.5 6.6
14/03:30am 13.7 14.2 12.8 94 0.5 W 2 4 1 2 1010.2 1008.6 6.6
14/03:00am 13.9 13.7 13.0 94 0.5 W 6 15 3 8 1010.3 1008.7 6.6
14/02:30am 14.2 14.1 13.4 95 0.5 WSW 6 17 3 9 1010.5 1008.9 6.2
14/02:00am 14.8 15.3 14.0 95 0.5 WSW 4 9 2 5 1010.7 1009.0 4.4
14/01:30am 15.2 15.2 14.2 94 0.6 SW 7 15 4 8 1011.0 1009.3 2.8
14/01:00am 15.6 16.3 14.6 94 0.6 WSW 4 9 2 5 1011.2 1009.5 1.2
14/12:30am 15.5 16.5 14.2 92 0.8 WSW 2 9 1 5 1011.3 1009.7 0.2
14/12:00am 15.9 16.7 13.7 87 1.3 SSW 2 9 1 5 1011.3 1009.7 0.0
 
Date/Time
EDT
Temp
°C
App
Temp
°C
Dew
Point
Rel
Hum
%
Delta-T
°C
Wind Press
QNH
hPa
Press
MSL
hPa
Rain
since 9 am
mm
Dir
 
Spd
km/h
Gust
km/h
Spd
kts
Gust
kts
13/11:30pm 16.0 16.3 13.5 85 1.4 SSE 4 7 2 4 1011.3 1009.7 0.0
13/11:00pm 16.0 15.9 13.3 84 1.5 SSE 6 13 3 7 1011.4 1009.8 0.0
13/10:30pm 15.6 15.3 12.7 83 1.6 S 6 11 3 6 1011.2 1009.5 0.0
13/10:00pm 15.9 16.0 12.6 81 1.9 SSE 4 7 2 4 1011.0 1009.3 0.0
13/09:30pm 16.3 16.0 12.7 79 2.0 ESE 6 13 3 7 1010.5 1008.9 0.0
13/09:00pm 16.4 16.3 12.2 76 2.4 ESE 4 7 2 4 1010.3 1008.7 0.0
13/08:30pm 17.1 16.6 12.2 73 2.8 ESE 6 11 3 6 1010.0 1008.4 0.0
13/08:00pm 17.9 17.2 12.1 69 3.3 ESE 7 13 4 7 1009.5 1007.8 0.0
13/07:30pm 18.3 17.8 12.7 70 3.2 ESE 7 17 4 9 1009.3 1007.6 0.0
13/07:00pm 19.1 18.5 13.5 70 3.3 SE 9 17 5 9 1008.9 1007.2 0.0
13/06:30pm 20.9 20.9 14.1 65 4.0 SSE 7 19 4 10 1008.6 1006.9 0.0
13/06:00pm 22.8 23.0 14.1 58 5.2 ESE 6 13 3 7 1008.4 1006.8 0.0
13/05:30pm 24.6 24.5 13.8 51 6.5 SSE 7 11 4 6 1008.4 1006.8 0.0
13/05:00pm 25.3 24.8 13.8 49 6.9 SSW 9 19 5 10 1008.4 1006.8 0.0
13/04:30pm 27.5 26.2 9.8 33 10.1 SW 7 15 4 8 1008.4 1006.8 0.0
13/04:00pm 30.5 29.8 11.9 31 11.1 SW 7 17 4 9 1008.3 1006.7 0.0
13/03:30pm 31.2 30.3 10.5 28 12.1 SW 6 17 3 9 1008.6 1006.9 0.0
13/03:00pm 31.1 29.5 8.8 25 12.7 WSW 7 17 4 9 1008.7 1007.0 0.0
13/02:30pm 31.1 29.6 9.3 26 12.5 SW 7 17 4 9 1009.0 1007.3 0.0
13/02:00pm 30.5 28.0 6.4 22 13.2 NNW 9 17 5 9 1009.3 1007.6 0.0
13/01:30pm 29.8 27.4 7.1 24 12.5 NW 9 24 5 13 1009.7 1008.1 0.0
13/01:00pm 29.2 27.0 7.7 26 11.9 NW 9 20 5 11 1010.0 1008.4 0.0
13/12:30pm 29.6 28.0 8.6 27 11.8 NW 7 24 4 13 1010.5 1008.9 0.0
13/12:00pm 29.3 26.4 6.7 24 12.4 NNW 11 24 6 13 1010.7 1009.0 0.0
13/11:30am 28.2 26.2 6.9 26 11.6 NNW 7 17 4 9 1011.0 1009.3 0.0
13/11:00am 26.6 24.5 6.6 28 10.8 N 7 17 4 9 1010.8 1009.1 0.0
13/10:30am 27.0 24.7 7.5 29 10.7 NNW 9 19 5 10 1011.3 1009.7 0.0
13/10:00am 26.2 24.0 6.3 28 10.6 NW 7 17 4 9 1011.4 1009.8 0.0
13/09:30am 25.4 22.9 6.6 30 10.0 NW 9 24 5 13 1011.5 1009.9 0.0
13/09:00am 24.6 22.1 4.9 28 10.2 NNW 7 15 4 8 1011.3 1009.7 0.0
13/08:30am 24.8 22.6 5.1 28 10.2 NW 6 19 3 10 1011.3 1009.7 0.0
13/08:00am 23.7 21.2 4.6 29 9.7 NNW 7 22 4 12 1011.0 1009.3 0.0
13/07:30am 23.6 21.3 5.0 30 9.5 NNW 6 20 3 11 1010.9 1009.2 0.0
13/07:00am 23.6 21.0 4.0 28 9.9 NNW 7 20 4 11 1010.8 1009.1 0.0
13/06:30am 23.1 20.6 4.6 30 9.4 NW 7 20 4 11 1010.5 1008.9 0.0
13/06:00am 22.8 20.2 4.3 30 9.3 NW 7 19 4 10 1010.3 1008.7 0.0
13/05:30am 22.7 20.4 4.7 31 9.1 NW 6 11 3 6 1010.4 1008.8 0.0
13/05:00am 22.9 20.6 4.9 31 9.2 NW 6 15 3 8 1010.4 1008.8 0.0
13/04:30am 22.0 19.8 5.4 34 8.5 NW 6 9 3 5 1010.5 1008.9 0.0
13/04:00am 21.9 20.0 6.6 37 8.0 NW 6 11 3 6 1010.9 1009.2 0.0
13/03:30am 21.4 19.6 7.3 40 7.4 NW 6 13 3 7 1011.0 1009.3 0.0
13/03:00am 21.1 19.5 8.0 43 7.0 WNW 6 9 3 5 1011.2 1009.5 0.0
13/02:30am 22.0 20.7 7.8 40 7.6 NW 4 7 2 4 1011.3 1009.7 0.0
13/02:00am 21.5 20.7 9.7 47 6.5 NW 4 7 2 4 1011.6 1010.0 0.0
13/01:30am 19.9 19.7 11.7 59 4.7 NW 4 6 2 3 1011.9 1010.3 0.0
13/01:00am 19.2 19.8 12.0 63 4.1 CALM 0 0 0 0 1012.1 1010.5 0.0
13/12:30am 17.9 18.4 12.8 72 2.9 W 2 4 1 2 1012.5 1010.9 0.0
13/12:00am 18.8 19.1 12.1 65 3.8 ENE 2 2 1 1 1012.9 1011.2 0.0
 
Date/Time
EDT
Temp
°C
App
Temp
°C
Dew
Point
Rel
Hum
%
Delta-T
°C
Wind Press
QNH
hPa
Press
MSL
hPa
Rain
since 9 am
mm
Dir
 
Spd
km/h
Gust
km/h
Spd
kts
Gust
kts
12/11:30pm 19.4 18.9 11.9 62 4.3 ENE 6 7 3 4 1013.1 1011.5 0.0
12/11:00pm 19.1 19.2 12.8 67 3.6 E 4 7 2 4 1013.5 1011.9 0.0
12/10:30pm 19.1 19.9 13.7 71 3.2 E 2 6 1 3 1013.9 1012.3 0.0
12/10:00pm 18.7 19.5 13.8 73 2.9 ESE 2 4 1 2 1013.9 1012.3 0.0
12/09:30pm 18.4 18.9 14.1 76 2.5 SE 4 9 2 5 1013.8 1012.2 0.0
12/09:00pm 18.5 19.2 14.6 78 2.3 ESE 4 6 2 3 1013.6 1012.0 0.0
12/08:30pm 19.1 20.1 14.4 74 2.8 ESE 2 4 1 2 1013.7 1012.1 0.0
12/08:00pm 20.4 21.4 14.3 68 3.6 SE 2 6 1 3 1013.5 1011.9 0.0
12/07:30pm 21.7 22.2 14.1 62 4.5 ESE 4 7 2 4 1013.4 1011.8 0.0
12/07:00pm 22.6 23.1 13.9 58 5.2 ESE 4 9 2 5 1013.5 1011.9 0.0
12/06:30pm 23.6 23.9 13.5 53 6.0 ESE 4 7 2 4 1013.5 1011.9 0.0
12/06:00pm 24.9 24.4 12.2 45 7.4 S 6 15 3 8 1013.7 1012.1 0.0
12/05:30pm 26.3 25.9 11.2 38 8.8 S 4 6 2 3 1013.9 1012.3 0.0
12/05:00pm 26.9 26.5 11.0 37 9.2 SW 4 9 2 5 1014.0 1012.4 0.0
12/04:30pm 26.2 26.2 12.3 42 8.2 SE 4 7 2 4 1014.3 1012.7 0.0
12/04:00pm 26.9 27.3 13.6 44 8.0 SW 4 9 2 5 1014.5 1012.9 0.0
12/03:30pm 26.1 26.4 14.6 49 7.0 SW 6 9 3 5 1014.9 1013.3 0.0
12/03:00pm 25.6 25.8 14.1 49 7.0 SSW 6 11 3 6 1015.3 1013.7 0.0
12/02:30pm 24.7 24.4 12.6 47 7.1 WSW 6 13 3 7 1015.6 1014.0 0.0
12/02:00pm 23.6 23.8 13.2 52 6.2 SE 4 9 2 5 1015.9 1014.3 0.0
12/01:30pm 23.5 24.0 13.9 55 5.7 SSW 4 7 2 4 1016.0 1014.4 0.0
12/01:00pm 22.2 22.4 14.1 60 4.8 E 6 9 3 5 1016.3 1014.7 0.0
12/12:30pm 22.3 22.9 14.2 60 4.8 W 4 7 2 4 1016.5 1015.0 0.0
12/12:00pm 21.1 22.2 14.7 67 3.8 ESE 2 6 1 3 1016.9 1015.3 0.0
12/11:30am 20.0 20.3 13.5 66 3.8 SW 4 9 2 5 1017.0 1015.4 0.0
12/11:00am 19.1 19.7 13.1 68 3.5 WNW 2 6 1 3 1016.9 1015.3 0.0
12/10:30am 18.5 19.3 13.6 73 2.9 WNW 2 7 1 4 1017.0 1015.4 0.0
12/10:00am 15.8 16.2 12.5 81 1.9 ESE 2 6 1 3 1017.2 1015.6 0.0
12/09:30am 14.0 14.4 12.4 90 0.9 E 2 7 1 4 1017.3 1015.7 0.0
12/09:00am 13.5 13.0 12.2 92 0.7 NE 6 9 3 5 1017.4 1015.8 -
12/08:30am 13.2 12.5 11.9 92 0.7 ESE 7 13 4 7 1017.3 1015.7 -
12/08:00am 13.1 12.0 11.8 92 0.7 ESE 9 20 5 11 1017.2 1015.6 -
12/07:30am 12.9 11.7 11.6 92 0.7 E 9 17 5 9 1017.1 1015.5 -
12/07:00am 12.9 12.1 11.8 93 0.6 ESE 7 15 4 8 1017.2 1015.6 -
12/06:30am 13.0 11.9 11.9 93 0.6 E 9 19 5 10 1017.1 1015.5 -
12/06:00am 13.0 11.9 11.9 93 0.6 ESE 9 19 5 10 1016.4 1014.9 -
12/05:30am 12.8 11.6 11.7 93 0.6 ESE 9 17 5 9 1016.4 1014.9 -
12/05:00am 12.8 11.9 11.5 92 0.7 ESE 7 19 4 10 1016.5 1015.0 -
12/04:30am 12.9 12.0 11.5 91 0.8 ESE 7 15 4 8 1016.5 1015.0 -
12/04:00am 13.0 12.3 11.4 90 0.9 ESE 6 15 3 8 1016.5 1015.0 -
12/03:30am 12.6 11.8 11.0 90 0.9 ESE 6 11 3 6 1016.5 1015.0 -
12/03:00am 12.6 11.6 11.0 90 0.9 E 7 13 4 7 1016.6 1015.1 0.0
12/02:30am 12.5 11.7 10.9 90 0.9 ESE 6 9 3 5 1016.7 1015.2 -
12/02:00am 12.8 12.0 11.0 89 1.0 ESE 6 11 3 6 1017.2 1015.6 -
12/01:30am 12.8 12.0 10.9 88 1.0 ESE 6 11 3 6 1017.6 1016.0 -
12/01:00am 12.8 11.9 10.7 87 1.1 ESE 6 13 3 7 1017.9 1016.3 -
12/12:30am 13.2 12.1 10.7 85 1.3 ESE 7 15 4 8 1018.0 1016.4 -
12/12:00am 13.6 12.5 10.6 82 1.6 SE 7 19 4 10 1018.3 1016.8 -
 
Date/Time
EDT
Temp
°C
App
Temp
°C
Dew
Point
Rel
Hum
%
Delta-T
°C
Wind Press
QNH
hPa
Press
MSL
hPa
Rain
since 9 am
mm
Dir
 
Spd
km/h
Gust
km/h
Spd
kts
Gust
kts
11/11:30pm 13.9 12.3 10.3 79 1.9 ESE 9 17 5 9 1018.4 1016.9 -
11/11:00pm 13.8 12.7 10.8 82 1.6 SE 7 15 4 8 1018.6 1017.1 -
11/10:30pm 13.9 12.4 10.7 81 1.7 SE 9 19 5 10 1018.7 1017.2 -
11/10:00pm 14.2 13.3 11.2 82 1.6 SE 7 15 4 8 1018.5 1017.0 -
11/09:30pm 14.2 13.3 11.2 82 1.6 SE 7 19 4 10 1018.0 1016.4 -
11/09:00pm 14.6 13.7 11.2 80 1.9 SE 7 19 4 10 1017.7 1016.1 0.0
11/08:30pm 15.1 14.2 11.3 78 2.1 SE 7 17 4 9 1017.5 1015.9 -
11/08:00pm 15.8 14.6 11.6 76 2.3 SSE 9 22 5 12 1017.4 1015.8 -
11/07:30pm 16.6 15.2 12.2 75 2.5 SSE 11 20 6 11 1017.0 1015.4 -
11/07:00pm 17.2 16.8 12.3 73 2.8 SE 6 13 3 7 1016.7 1015.2 -
11/06:30pm 17.9 17.4 12.6 71 3.0 SE 7 17 4 9 1016.4 1014.9 -
11/06:00pm 18.7 17.8 12.5 67 3.5 SSE 9 19 5 10 1016.3 1014.7 -
11/05:30pm 19.9 18.9 12.4 62 4.3 SE 9 19 5 10 1016.3 1014.7 -
11/05:00pm 21.3 20.7 12.2 56 5.2 S 7 13 4 7 1016.4 1014.9 -

Other Formats:

Comma delimited format used in spreadsheet applications
http://www.bom.gov.au/fwo/IDV60801/IDV60801.94872.axf

JavaScript Object Notation format (JSON) in row-major order
http://www.bom.gov.au/fwo/IDV60801/IDV60801.94872.json